RSC72VR GCLA-GCXO
Flight info
| Callsign | RSC72VR |
|---|---|
| Flight time | 0h 30m |
| Altitude | 13000 |
| Route | TFN |
| Aircraft | AT76/M-SDFGIRY/S |
Departure
| Time | 2026-04-21 18:07 |
|---|---|
| Airport | La Palma Airport (GCLA) |
Arrival
| Time | 2026-04-21 18:38 |
|---|---|
| Airport | Tenerife Norte-Ciudad de La Laguna Airport (GCXO) |
| Time | Latitude | Longitude | Altitude | Speed | Heading |
|---|---|---|---|---|---|
| 2026-04-21 17:37 | 28.62048 | -17.75352 | 111 ft | 0 kts | 89° |
| 2026-04-21 18:04 | 28.62047 | -17.75376 | 109 ft | 6 kts | 89° |
| 2026-04-21 18:04 | 28.62028 | -17.75432 | 108 ft | 11 kts | 21° |
| 2026-04-21 18:04 | 28.61994 | -17.75436 | 108 ft | 0 kts | 355° |
| 2026-04-21 18:05 | 28.62029 | -17.75440 | 109 ft | 8 kts | 355° |
| 2026-04-21 18:05 | 28.62073 | -17.75458 | 110 ft | 10 kts | 324° |
| 2026-04-21 18:05 | 28.62079 | -17.75551 | 114 ft | 9 kts | 206° |
| 2026-04-21 18:05 | 28.61961 | -17.75547 | 113 ft | 22 kts | 176° |
| 2026-04-21 18:06 | 28.61804 | -17.75542 | 111 ft | 23 kts | 178° |
| 2026-04-21 18:06 | 28.61672 | -17.75573 | 108 ft | 9 kts | 188° |
| 2026-04-21 18:06 | 28.61664 | -17.75550 | 106 ft | 1 kts | 21° |
| 2026-04-21 18:06 | 28.61682 | -17.75546 | 109 ft | 4 kts | 9° |
| 2026-04-21 18:07 | 28.61790 | -17.75541 | 111 ft | 42 kts | 360° |
| 2026-04-21 18:07 | 28.62279 | -17.75554 | 112 ft | 96 kts | 359° |
| 2026-04-21 18:07 | 28.63053 | -17.75574 | 335 ft | 115 kts | 358° |
| 2026-04-21 18:07 | 28.63835 | -17.75559 | 924 ft | 114 kts | 12° |
| 2026-04-21 18:08 | 28.64475 | -17.74949 | 1318 ft | 134 kts | 59° |
| 2026-04-21 18:08 | 28.64607 | -17.73883 | 1832 ft | 141 kts | 84° |
| 2026-04-21 18:08 | 28.64661 | -17.72654 | 2034 ft | 165 kts | 82° |
| 2026-04-21 18:08 | 28.64767 | -17.71343 | 2261 ft | 175 kts | 76° |
| 2026-04-21 18:09 | 28.65166 | -17.70033 | 2564 ft | 177 kts | 62° |
| 2026-04-21 18:09 | 28.65700 | -17.68754 | 2951 ft | 179 kts | 61° |
| 2026-04-21 18:09 | 28.66087 | -17.67897 | 3206 ft | 180 kts | 56° |
| 2026-04-21 18:09 | 28.67013 | -17.66328 | 3664 ft | 183 kts | 51° |
| 2026-04-21 18:10 | 28.67765 | -17.65152 | 4041 ft | 184 kts | 50° |
| 2026-04-21 18:10 | 28.68565 | -17.64010 | 4418 ft | 185 kts | 47° |
| 2026-04-21 18:10 | 28.69403 | -17.62882 | 4772 ft | 188 kts | 47° |
| 2026-04-21 18:10 | 28.70254 | -17.61744 | 5095 ft | 189 kts | 48° |
| 2026-04-21 18:11 | 28.70766 | -17.60395 | 5357 ft | 194 kts | 87° |
| 2026-04-21 18:11 | 28.70673 | -17.58824 | 5676 ft | 198 kts | 98° |
| 2026-04-21 18:11 | 28.70465 | -17.57289 | 6015 ft | 200 kts | 100° |
| 2026-04-21 18:11 | 28.70228 | -17.55719 | 6334 ft | 201 kts | 100° |
| 2026-04-21 18:12 | 28.69996 | -17.54151 | 6656 ft | 202 kts | 99° |
| 2026-04-21 18:12 | 28.69774 | -17.52559 | 6951 ft | 203 kts | 99° |
| 2026-04-21 18:12 | 28.69565 | -17.50955 | 7229 ft | 205 kts | 98° |
| 2026-04-21 18:12 | 28.69363 | -17.49344 | 7533 ft | 205 kts | 98° |
| 2026-04-21 18:13 | 28.69171 | -17.47720 | 7800 ft | 207 kts | 98° |
| 2026-04-21 18:13 | 28.68980 | -17.46092 | 8086 ft | 209 kts | 98° |
| 2026-04-21 18:13 | 28.68782 | -17.44448 | 8365 ft | 209 kts | 98° |
| 2026-04-21 18:13 | 28.68580 | -17.42820 | 8637 ft | 210 kts | 99° |
| 2026-04-21 18:14 | 28.68167 | -17.39503 | 9165 ft | 213 kts | 99° |
| 2026-04-21 18:14 | 28.67960 | -17.37820 | 9427 ft | 214 kts | 99° |
| 2026-04-21 18:14 | 28.67749 | -17.36132 | 9699 ft | 215 kts | 99° |
| 2026-04-21 18:15 | 28.67537 | -17.34437 | 9943 ft | 216 kts | 99° |
| 2026-04-21 18:15 | 28.67328 | -17.32752 | 10170 ft | 217 kts | 99° |
| 2026-04-21 18:15 | 28.67115 | -17.31046 | 10393 ft | 218 kts | 99° |
| 2026-04-21 18:15 | 28.66900 | -17.29331 | 10634 ft | 218 kts | 99° |
| 2026-04-21 18:16 | 28.66685 | -17.27609 | 10857 ft | 220 kts | 99° |
| 2026-04-21 18:16 | 28.66469 | -17.25883 | 11088 ft | 220 kts | 99° |
| 2026-04-21 18:16 | 28.66254 | -17.24152 | 11328 ft | 220 kts | 99° |
| 2026-04-21 18:16 | 28.66036 | -17.22419 | 11553 ft | 221 kts | 99° |
| 2026-04-21 18:17 | 28.65819 | -17.20685 | 11778 ft | 221 kts | 99° |
| 2026-04-21 18:17 | 28.65602 | -17.18940 | 11989 ft | 223 kts | 99° |
| 2026-04-21 18:17 | 28.65385 | -17.17223 | 12198 ft | 223 kts | 99° |
| 2026-04-21 18:17 | 28.65167 | -17.15469 | 12414 ft | 223 kts | 99° |
| 2026-04-21 18:18 | 28.64948 | -17.13716 | 12633 ft | 224 kts | 99° |
| 2026-04-21 18:18 | 28.64722 | -17.11958 | 12815 ft | 226 kts | 99° |
| 2026-04-21 18:18 | 28.64496 | -17.10155 | 12902 ft | 233 kts | 99° |
| 2026-04-21 18:18 | 28.64262 | -17.08306 | 12942 ft | 240 kts | 98° |
| 2026-04-21 18:19 | 28.64018 | -17.06396 | 12959 ft | 247 kts | 99° |
| 2026-04-21 18:19 | 28.63770 | -17.04441 | 12966 ft | 252 kts | 99° |
| 2026-04-21 18:19 | 28.63518 | -17.02448 | 12972 ft | 257 kts | 99° |
| 2026-04-21 18:19 | 28.63266 | -17.00445 | 12977 ft | 260 kts | 98° |
| 2026-04-21 18:20 | 28.63001 | -16.98385 | 12972 ft | 263 kts | 99° |
| 2026-04-21 18:20 | 28.62739 | -16.96319 | 12975 ft | 265 kts | 98° |
| 2026-04-21 18:20 | 28.62475 | -16.94227 | 12973 ft | 267 kts | 99° |
| 2026-04-21 18:20 | 28.62206 | -16.92134 | 12972 ft | 268 kts | 99° |
| 2026-04-21 18:21 | 28.61936 | -16.90025 | 12976 ft | 269 kts | 99° |
| 2026-04-21 18:21 | 28.61668 | -16.87917 | 12973 ft | 269 kts | 99° |
| 2026-04-21 18:21 | 28.61398 | -16.85798 | 12979 ft | 270 kts | 98° |
| 2026-04-21 18:21 | 28.61126 | -16.83685 | 12980 ft | 270 kts | 99° |
| 2026-04-21 18:22 | 28.60855 | -16.81572 | 12979 ft | 270 kts | 99° |
| 2026-04-21 18:22 | 28.60585 | -16.79481 | 12978 ft | 270 kts | 99° |
| 2026-04-21 18:22 | 28.60312 | -16.77362 | 12979 ft | 270 kts | 99° |
| 2026-04-21 18:22 | 28.60040 | -16.75239 | 12982 ft | 271 kts | 99° |
| 2026-04-21 18:23 | 28.59764 | -16.73118 | 12982 ft | 271 kts | 99° |
| 2026-04-21 18:23 | 28.59491 | -16.70996 | 12988 ft | 271 kts | 99° |
| 2026-04-21 18:23 | 28.59403 | -16.70307 | 12989 ft | 271 kts | 99° |
| 2026-04-21 18:23 | 28.59400 | -16.70286 | 12985 ft | 271 kts | 99° |
| 2026-04-21 18:24 | 28.59263 | -16.69231 | 12983 ft | 271 kts | 99° |
| 2026-04-21 18:24 | 28.58900 | -16.66420 | 12988 ft | 271 kts | 99° |
| 2026-04-21 18:24 | 28.58624 | -16.64296 | 12990 ft | 271 kts | 99° |
| 2026-04-21 18:24 | 28.58349 | -16.62176 | 12987 ft | 271 kts | 99° |
| 2026-04-21 18:25 | 28.58071 | -16.60049 | 12989 ft | 271 kts | 99° |
| 2026-04-21 18:25 | 28.57884 | -16.58614 | 12993 ft | 271 kts | 99° |
| 2026-04-21 18:25 | 28.57612 | -16.56518 | 12992 ft | 271 kts | 99° |
| 2026-04-21 18:25 | 28.57334 | -16.54391 | 12993 ft | 271 kts | 99° |
| 2026-04-21 18:26 | 28.57056 | -16.52266 | 12992 ft | 271 kts | 99° |
| 2026-04-21 18:26 | 28.56777 | -16.50146 | 12993 ft | 271 kts | 99° |
| 2026-04-21 18:26 | 28.56501 | -16.48023 | 12997 ft | 272 kts | 99° |
| 2026-04-21 18:26 | 28.56221 | -16.45887 | 12988 ft | 272 kts | 99° |
| 2026-04-21 18:27 | 28.55945 | -16.43781 | 12993 ft | 272 kts | 99° |
| 2026-04-21 18:27 | 28.55664 | -16.41647 | 12994 ft | 272 kts | 99° |
| 2026-04-21 18:27 | 28.55384 | -16.39520 | 12992 ft | 272 kts | 99° |
| 2026-04-21 18:27 | 28.55103 | -16.37392 | 12981 ft | 272 kts | 99° |
| 2026-04-21 18:28 | 28.54816 | -16.35207 | 12621 ft | 285 kts | 99° |
| 2026-04-21 18:28 | 28.54515 | -16.32967 | 12268 ft | 288 kts | 99° |
| 2026-04-21 18:28 | 28.54215 | -16.30706 | 11909 ft | 288 kts | 99° |
| 2026-04-21 18:28 | 28.53925 | -16.28484 | 11600 ft | 288 kts | 99° |
| 2026-04-21 18:29 | 28.53600 | -16.26245 | 11252 ft | 285 kts | 105° |
| 2026-04-21 18:29 | 28.52928 | -16.24124 | 10878 ft | 286 kts | 114° |
| 2026-04-21 18:29 | 28.52133 | -16.22040 | 10512 ft | 288 kts | 115° |
| 2026-04-21 18:29 | 28.51342 | -16.19936 | 10115 ft | 289 kts | 114° |
| 2026-04-21 18:30 | 28.50612 | -16.17835 | 9733 ft | 289 kts | 112° |
| 2026-04-21 18:30 | 28.49911 | -16.15695 | 9319 ft | 289 kts | 111° |
| 2026-04-21 18:30 | 28.49201 | -16.13557 | 8769 ft | 283 kts | 112° |
| 2026-04-21 18:30 | 28.48520 | -16.11521 | 8213 ft | 266 kts | 112° |
| 2026-04-21 18:31 | 28.47869 | -16.09618 | 7661 ft | 245 kts | 116° |
| 2026-04-21 18:31 | 28.46806 | -16.08238 | 7122 ft | 227 kts | 153° |
| 2026-04-21 18:31 | 28.45346 | -16.07879 | 6600 ft | 209 kts | 190° |
| 2026-04-21 18:31 | 28.43969 | -16.08255 | 6055 ft | 200 kts | 198° |
| 2026-04-21 18:32 | 28.42643 | -16.08630 | 5513 ft | 198 kts | 195° |
| 2026-04-21 18:32 | 28.41451 | -16.09248 | 4994 ft | 185 kts | 230° |
| 2026-04-21 18:32 | 28.40981 | -16.10507 | 4666 ft | 170 kts | 262° |
| 2026-04-21 18:32 | 28.41058 | -16.11843 | 4461 ft | 173 kts | 284° |
| 2026-04-21 18:33 | 28.41354 | -16.13173 | 4384 ft | 174 kts | 284° |
| 2026-04-21 18:33 | 28.41698 | -16.14483 | 4347 ft | 171 kts | 289° |
| 2026-04-21 18:33 | 28.42126 | -16.15736 | 4319 ft | 170 kts | 291° |
| 2026-04-21 18:33 | 28.42577 | -16.16976 | 4318 ft | 168 kts | 291° |
| 2026-04-21 18:34 | 28.43006 | -16.18208 | 4309 ft | 167 kts | 290° |
| 2026-04-21 18:34 | 28.43409 | -16.19441 | 4316 ft | 165 kts | 289° |
| 2026-04-21 18:34 | 28.43802 | -16.20671 | 4258 ft | 166 kts | 289° |
| 2026-04-21 18:34 | 28.44195 | -16.21867 | 4047 ft | 159 kts | 290° |
| 2026-04-21 18:35 | 28.44453 | -16.22638 | 3937 ft | 156 kts | 290° |
| 2026-04-21 18:35 | 28.44937 | -16.24114 | 3657 ft | 137 kts | 290° |
| 2026-04-21 18:35 | 28.45249 | -16.25058 | 3486 ft | 121 kts | 291° |
| 2026-04-21 18:35 | 28.45539 | -16.25937 | 3326 ft | 119 kts | 290° |
| 2026-04-21 18:36 | 28.45831 | -16.26818 | 3174 ft | 120 kts | 291° |
| 2026-04-21 18:36 | 28.46124 | -16.27710 | 3000 ft | 120 kts | 292° |
| 2026-04-21 18:36 | 28.46423 | -16.28593 | 2832 ft | 120 kts | 293° |
| 2026-04-21 18:36 | 28.46712 | -16.29483 | 2686 ft | 121 kts | 294° |
| 2026-04-21 18:37 | 28.47005 | -16.30373 | 2499 ft | 122 kts | 294° |
| 2026-04-21 18:37 | 28.47301 | -16.31269 | 2361 ft | 120 kts | 295° |
| 2026-04-21 18:37 | 28.47591 | -16.32152 | 2147 ft | 116 kts | 296° |
| 2026-04-21 18:37 | 28.47871 | -16.32949 | 2024 ft | 100 kts | 294° |
| 2026-04-21 18:38 | 28.48086 | -16.33600 | 2035 ft | 77 kts | 292° |
| 2026-04-21 18:38 | 28.48215 | -16.33994 | 2045 ft | 36 kts | 291° |
| 2026-04-21 18:38 | 28.48309 | -16.34155 | 2048 ft | 21 kts | 325° |
| 2026-04-21 18:38 | 28.48425 | -16.34280 | 2050 ft | 23 kts | 293° |
| 2026-04-21 18:39 | 28.48490 | -16.34479 | 2059 ft | 27 kts | 290° |
| 2026-04-21 18:39 | 28.48531 | -16.34609 | 2066 ft | 10 kts | 289° |
| 2026-04-21 18:39 | 28.48561 | -16.34634 | 2066 ft | 4 kts | 352° |
| 2026-04-21 18:39 | 28.48589 | -16.34626 | 2066 ft | 5 kts | 25° |
| 2026-04-21 18:40 | 28.48618 | -16.34612 | 2068 ft | 4 kts | 21° |
| 2026-04-21 18:40 | 28.48648 | -16.34599 | 2065 ft | 4 kts | 20° |
| 2026-04-21 18:40 | 28.48659 | -16.34595 | 2065 ft | 0 kts | 20° |